Terminal Aerodrome Forecast
Issued by NWS Charleston, WV

Current Version | Previous Version | Graphics & Text | Print | Product List | Glossary On
Versions: 1 2 3 4 5 6 7 8 9 10 11 12 13 14 15 16 17 18 19 20 21 22 23
000
FTUS41 KRLX 290554
TAFBKW
TAF
KBKW 290554Z 2906/3006 00000KT P6SM BKN250
     FM290800 00000KT 6SM BR BKN200
     FM290900 00000KT 5SM BR BKN200
     FM291100 00000KT 6SM BR FEW150
     FM291200 00000KT P6SM FEW140
     FM291700 22006KT P6SM BKN080
     FM300000 00000KT P6SM BKN035=

USA.gov is the U.S. government's official web portal to all federal, state and local government web resources and services.